EISG/SXL METAR and TAF weather

Enter ICAO airport designator
Station Type Date Time Source
EISG METAR 2021/07/27 20:30 UTC NOAA

EISG 272030Z 29009KT 9999 SCT021 BKN040 15/12 Q1008


Station Type Date Time Source
EISG Decoded METAR 2021/07/27 20:30 UTC NOAA

Station name not available
Jul 27, 2021 - 04:30 PM EDT / 2021.07.27 2030 UTC
Wind: from the WNW (290 degrees) at 10 MPH (9 KT):0
Visibility: greater than 7 mile(s):0
Sky conditions: mostly cloudy
Temperature: 59 F (15 C)
Dew Point: 53 F (12 C)
Relative Humidity: 82%
Pressure (altimeter): 29.77 in. Hg (1008 hPa)
ob: EISG 272030Z 29009KT 9999 SCT021 BKN040 15/12 Q1008
cycle: 20

Station Type Date Time Source
EISG TAF UTC NOAA

Error!

Example: see airport list